Time;durP1;ratioP1;P1;durP2;ratioP2;P2;SDS_P1;SDS_P2;PMS_P1;PMS_P2;Temp;Humidity;BMP_temperature;BMP_pressure;BME280_temperature;BME280_humidity;BME280_pressure;Samples;Min_cycle;Max_cycle;Signal;HPM_P1;HPM_P2
2024/04/23 00:02:12;;;;;;;19.47;15.13;;;2.70;1.00;;;;;;5404133;26;20769;-72
2024/04/23 00:04:37;;;;;;;17.30;13.63;;;2.60;1.00;;;;;;5404464;26;20205;-72
2024/04/23 00:07:03;;;;;;;18.97;14.33;;;2.70;1.00;;;;;;5404252;26;20316;-72
2024/04/23 00:09:29;;;;;;;20.93;13.53;;;2.70;1.00;;;;;;5404436;26;20254;-72
2024/04/23 00:11:54;;;;;;;17.40;13.97;;;2.70;1.00;;;;;;5404161;26;20312;-72
2024/04/23 00:14:21;;;;;;;17.63;14.37;;;2.70;1.00;;;;;;5404102;26;20647;-72
2024/04/23 00:16:56;;;;;;;17.47;14.00;;;2.70;1.00;;;;;;5404431;26;20204;-72
2024/04/23 00:19:22;;;;;;;22.43;14.27;;;2.70;59.00;;;;;;5404021;26;20221;-72
2024/04/23 00:21:48;;;;;;;18.67;14.50;;;2.70;99.90;;;;;;5402752;26;20259;-73
2024/04/23 00:24:13;;;;;;;19.13;13.60;;;2.70;99.90;;;;;;5404239;26;20255;-72
2024/04/23 00:26:39;;;;;;;16.13;14.47;;;2.70;99.90;;;;;;5404238;26;20259;-72
2024/04/23 00:29:04;;;;;;;18.40;13.77;;;2.70;99.90;;;;;;5403459;26;20220;-72
2024/04/23 00:31:30;;;;;;;17.13;14.27;;;2.70;99.90;;;;;;5404068;26;20272;-73
2024/04/23 00:33:55;;;;;;;17.43;15.40;;;2.70;99.90;;;;;;5403824;26;20212;-73
2024/04/23 00:36:21;;;;;;;20.70;15.90;;;2.70;99.90;;;;;;5402968;26;20213;-73
2024/04/23 00:38:46;;;;;;;21.17;16.13;;;2.60;99.90;;;;;;5402526;26;20220;-73
2024/04/23 00:41:12;;;;;;;15.53;13.93;;;2.60;99.90;;;;;;5402468;26;20224;-73
2024/04/23 00:43:38;;;;;;;21.10;16.20;;;2.60;99.90;;;;;;5402270;26;20762;-73
2024/04/23 00:46:05;;;;;;;17.63;15.70;;;2.60;99.90;;;;;;5402572;26;20255;-73
2024/04/23 00:48:32;;;;;;;20.03;15.60;;;2.50;99.90;;;;;;5402572;26;20259;-73
2024/04/23 00:50:58;;;;;;;16.47;14.73;;;2.50;99.90;;;;;;5400063;26;20323;-73
2024/04/23 00:53:24;;;;;;;24.80;15.93;;;2.40;99.90;;;;;;5402239;26;20220;-73
2024/04/23 00:55:51;;;;;;;19.00;15.17;;;2.40;99.90;;;;;;5400686;26;20244;-73
2024/04/23 00:58:17;;;;;;;21.33;15.03;;;2.40;99.90;;;;;;5402348;26;20232;-73
2024/04/23 01:00:42;;;;;;;20.47;16.83;;;2.30;99.90;;;;;;5402000;26;20224;-73
2024/04/23 01:03:08;;;;;;;21.63;16.17;;;2.30;99.90;;;;;;5402093;26;20750;-73
2024/04/23 01:05:34;;;;;;;18.87;15.47;;;2.40;99.90;;;;;;5401985;26;20299;-73
2024/04/23 01:07:59;;;;;;;20.20;15.77;;;2.30;99.90;;;;;;5400383;26;20247;-73
2024/04/23 01:10:25;;;;;;;22.17;17.50;;;2.40;99.90;;;;;;5401700;26;20311;-73
2024/04/23 01:12:51;;;;;;;20.53;15.10;;;2.40;99.90;;;;;;5402091;26;20260;-73
2024/04/23 01:15:17;;;;;;;19.97;15.67;;;2.50;99.90;;;;;;5402007;26;20259;-73
2024/04/23 01:17:44;;;;;;;18.77;16.57;;;2.50;99.90;;;;;;5402095;26;20273;-73
2024/04/23 01:20:12;;;;;;;22.07;17.80;;;2.50;99.90;;;;;;5401453;26;20229;-73
2024/04/23 01:23:10;;;;;;;21.17;15.73;;;2.60;99.90;;;;;;5401851;26;20744;-73
2024/04/23 01:25:37;;;;;;;18.70;16.67;;;2.60;99.90;;;;;;5402147;26;20305;-72
2024/04/23 01:28:03;;;;;;;19.40;16.07;;;2.60;99.90;;;;;;5401844;26;20255;-73
2024/04/23 01:30:29;;;;;;;18.13;16.10;;;2.70;99.90;;;;;;5410137;21;20257;-71
2024/04/23 01:32:56;;;;;;;21.40;16.17;;;2.70;99.90;;;;;;5367091;26;20248;-71
2024/04/23 01:35:23;;;;;;;18.53;16.20;;;2.70;99.90;;;;;;5370130;26;20218;-71
2024/04/23 01:37:52;;;;;;;25.17;17.43;;;2.70;99.90;;;;;;5369642;26;20206;-71
2024/04/23 01:40:18;;;;;;;18.43;15.97;;;2.70;99.90;;;;;;5369250;26;20727;-70
2024/04/23 01:42:45;;;;;;;19.23;16.43;;;2.70;99.90;;;;;;5368818;26;20237;-70
2024/04/23 01:45:17;;;;;;;18.93;15.83;;;2.70;99.90;;;;;;5369327;26;20272;-70
2024/04/23 01:47:44;;;;;;;21.30;16.67;;;2.70;99.90;;;;;;5371135;26;20640;-71
2024/04/23 01:50:11;;;;;;;20.87;16.23;;;2.60;99.90;;;;;;5373389;26;20314;-72
2024/04/23 01:52:36;;;;;;;19.47;16.03;;;2.60;99.90;;;;;;5374803;26;20256;-72
2024/04/23 01:55:03;;;;;;;19.57;15.80;;;2.50;99.90;;;;;;5372703;26;20205;-72
2024/04/23 01:57:29;;;;;;;19.40;15.00;;;2.40;99.90;;;;;;5376405;26;20306;-72
2024/04/23 01:59:59;;;;;;;17.57;14.73;;;2.40;99.90;;;;;;5375857;26;20245;-73
2024/04/23 02:02:25;;;;;;;19.37;16.43;;;2.30;99.90;;;;;;5372567;26;20260;-72
2024/04/23 02:04:51;;;;;;;20.10;15.40;;;2.30;99.90;;;;;;5374606;26;20295;-70
2024/04/23 02:07:17;;;;;;;20.27;15.73;;;2.20;99.90;;;;;;5371555;26;20225;-69
2024/04/23 02:09:44;;;;;;;20.93;15.63;;;2.10;99.90;;;;;;5371587;26;20225;-70
2024/04/23 02:12:14;;;;;;;22.30;16.87;;;2.10;99.90;;;;;;5370353;26;20268;-70
2024/04/23 02:14:40;;;;;;;18.80;16.77;;;2.10;99.90;;;;;;5370544;26;20249;-70
2024/04/23 02:17:06;;;;;;;18.90;16.87;;;2.00;99.90;;;;;;5371481;26;20222;-70
2024/04/23 02:19:32;;;;;;;20.87;16.87;;;2.00;99.90;;;;;;5369031;26;20214;-70
2024/04/23 02:21:57;;;;;;;23.37;17.33;;;1.90;99.90;;;;;;5369390;26;20549;-70
2024/04/23 02:24:23;;;;;;;20.73;17.00;;;1.90;99.90;;;;;;5370083;26;20214;-70
2024/04/23 02:26:48;;;;;;;21.13;16.93;;;1.90;99.90;;;;;;5370661;26;20709;-70
2024/04/23 02:29:14;;;;;;;20.87;16.13;;;1.80;99.90;;;;;;5368554;26;20230;-69
2024/04/23 02:31:40;;;;;;;18.53;16.50;;;1.70;99.90;;;;;;5369855;26;20230;-70
2024/04/23 02:34:05;;;;;;;19.10;16.00;;;1.70;99.90;;;;;;5370576;26;20214;-70
2024/04/23 02:36:31;;;;;;;21.00;17.47;;;1.70;99.90;;;;;;5371494;26;20217;-70
2024/04/23 02:38:56;;;;;;;23.57;17.80;;;1.60;99.90;;;;;;5370900;26;20205;-70
2024/04/23 02:41:22;;;;;;;26.87;17.83;;;1.60;99.90;;;;;;5370711;26;20766;-70
2024/04/23 02:43:48;;;;;;;21.10;17.77;;;1.70;99.90;;;;;;5370631;26;20256;-70
2024/04/23 02:46:13;;;;;;;23.60;17.87;;;1.60;99.90;;;;;;5371499;26;20330;-71
2024/04/23 02:48:39;;;;;;;21.07;17.27;;;1.60;99.90;;;;;;5369874;26;20622;-70
2024/04/23 02:51:05;;;;;;;24.50;18.50;;;1.60;99.90;;;;;;5370898;26;20317;-70
2024/04/23 02:53:31;;;;;;;24.23;18.50;;;1.60;99.90;;;;;;5370881;26;20209;-70
2024/04/23 02:55:56;;;;;;;21.43;17.93;;;1.50;99.90;;;;;;5370414;26;20727;-70
2024/04/23 02:58:22;;;;;;;24.33;17.90;;;1.50;99.90;;;;;;5370708;26;20779;-70
2024/04/23 03:00:47;;;;;;;21.03;18.10;;;1.40;99.90;;;;;;5370715;26;20225;-70
2024/04/23 03:03:13;;;;;;;22.30;17.33;;;1.40;99.90;;;;;;5370842;26;20604;-70
2024/04/23 03:05:39;;;;;;;25.93;20.27;;;1.30;99.90;;;;;;5371183;26;20585;-69
2024/04/23 03:08:05;;;;;;;29.50;20.27;;;1.30;99.90;;;;;;5371275;26;20318;-70
2024/04/23 03:10:30;;;;;;;23.43;19.50;;;1.30;99.90;;;;;;5369605;26;20222;-70
2024/04/23 03:12:56;;;;;;;25.37;19.00;;;1.30;99.90;;;;;;5370835;26;20804;-70
2024/04/23 03:15:22;;;;;;;28.77;20.80;;;1.20;99.90;;;;;;5370941;26;20213;-70
2024/04/23 03:17:47;;;;;;;22.83;18.43;;;1.10;99.90;;;;;;5370834;26;20259;-70
2024/04/23 03:20:13;;;;;;;29.70;19.67;;;1.10;99.90;;;;;;5370462;26;20225;-70
2024/04/23 03:22:38;;;;;;;28.23;20.57;;;1.20;99.90;;;;;;5370833;26;20252;-70
2024/04/23 03:25:04;;;;;;;31.97;20.20;;;1.10;99.90;;;;;;5370725;26;20256;-71
2024/04/23 03:27:30;;;;;;;25.57;20.17;;;1.10;99.90;;;;;;5370333;26;20306;-70
2024/04/23 03:29:56;;;;;;;26.90;19.90;;;1.10;99.90;;;;;;5370244;26;20225;-70
2024/04/23 03:32:21;;;;;;;29.93;21.10;;;1.10;99.90;;;;;;5370306;26;20214;-70
2024/04/23 03:34:47;;;;;;;26.50;20.20;;;1.00;99.90;;;;;;5370618;26;20653;-70
2024/04/23 03:37:12;;;;;;;25.77;19.80;;;1.00;99.90;;;;;;5370674;26;20252;-70
2024/04/23 03:39:38;;;;;;;27.03;20.70;;;1.00;99.90;;;;;;5370372;26;20210;-71
2024/04/23 03:42:04;;;;;;;26.70;20.03;;;1.00;99.90;;;;;;5369582;26;20786;-70
2024/04/23 03:44:29;;;;;;;26.30;20.57;;;1.10;99.90;;;;;;5370419;26;20210;-70
2024/04/23 03:46:58;;;;;;;28.60;21.53;;;1.00;99.90;;;;;;5370331;26;20681;-72
2024/04/23 03:49:23;;;;;;;31.20;22.47;;;1.00;99.90;;;;;;5370211;26;20235;-71
2024/04/23 03:51:49;;;;;;;33.60;23.87;;;0.90;99.90;;;;;;5369257;26;20210;-70
2024/04/23 03:54:15;;;;;;;30.27;22.53;;;1.00;99.90;;;;;;5368627;26;20237;-70
2024/04/23 03:56:40;;;;;;;30.93;22.37;;;0.90;99.90;;;;;;5367797;26;20309;-71
2024/04/23 03:59:06;;;;;;;34.43;24.43;;;1.00;99.90;;;;;;5368856;26;20692;-71
2024/04/23 04:01:31;;;;;;;32.00;23.33;;;1.00;99.90;;;;;;5369037;26;20402;-71
2024/04/23 04:06:41;;;;;;;29.90;22.50;;;1.00;99.90;;;;;;5369012;26;20313;-70
2024/04/23 04:09:07;;;;;;;30.57;22.33;;;1.00;99.90;;;;;;5368619;26;20231;-70
2024/04/23 04:11:34;;;;;;;32.37;22.83;;;1.00;99.90;;;;;;5368723;26;20233;-70
2024/04/23 04:14:02;;;;;;;30.93;22.17;;;1.00;99.90;;;;;;5368500;26;20264;-71
2024/04/23 04:16:28;;;;;;;31.07;22.40;;;1.00;99.90;;;;;;5368693;26;20213;-71
2024/04/23 04:18:55;;;;;;;35.30;23.07;;;1.10;99.90;;;;;;5368854;26;20273;-71
2024/04/23 04:21:20;;;;;;;32.37;21.87;;;1.10;99.90;;;;;;5369024;26;20237;-70
2024/04/23 04:23:46;;;;;;;29.53;21.30;;;1.10;99.90;;;;;;5368116;26;20552;-70
2024/04/23 04:26:13;;;;;;;30.60;21.97;;;1.10;99.90;;;;;;5368382;26;20330;-70
2024/04/23 04:28:39;;;;;;;29.73;20.90;;;1.10;99.90;;;;;;5369787;26;20244;-71
2024/04/23 04:31:05;;;;;;;27.43;20.17;;;1.00;99.90;;;;;;5367892;26;20218;-70
2024/04/23 04:33:31;;;;;;;29.40;20.13;;;1.00;99.90;;;;;;5368599;26;20572;-70
2024/04/23 04:35:56;;;;;;;26.33;20.33;;;0.90;99.90;;;;;;5369225;26;20217;-70
2024/04/23 04:38:22;;;;;;;27.00;19.97;;;0.90;99.90;;;;;;5369457;26;20205;-70
2024/04/23 04:40:48;;;;;;;28.40;20.43;;;0.90;99.90;;;;;;5367786;26;20706;-71
2024/04/23 04:43:13;;;;;;;29.07;21.00;;;0.90;99.90;;;;;;5366147;26;20317;-71
2024/04/23 04:45:39;;;;;;;30.17;20.00;;;0.90;99.90;;;;;;5368866;26;20214;-71
2024/04/23 04:48:05;;;;;;;31.13;21.63;;;1.00;99.90;;;;;;5369200;26;20604;-71
2024/04/23 04:50:30;;;;;;;34.63;21.17;;;0.90;99.90;;;;;;5368341;26;20708;-71
2024/04/23 04:52:56;;;;;;;37.33;24.40;;;1.00;99.90;;;;;;5368494;26;20554;-70
2024/04/23 04:55:21;;;;;;;38.67;27.03;;;1.00;99.90;;;;;;5368157;26;20229;-71
2024/04/23 04:57:47;;;;;;;39.37;26.77;;;1.10;99.90;;;;;;5368583;26;20689;-71
2024/04/23 05:00:13;;;;;;;38.63;25.90;;;1.20;99.90;;;;;;5368082;26;20285;-71
2024/04/23 05:02:38;;;;;;;36.43;25.00;;;1.20;99.90;;;;;;5368176;26;20225;-71
2024/04/23 05:05:04;;;;;;;41.23;26.00;;;1.20;99.90;;;;;;5367734;26;20808;-71
2024/04/23 05:07:30;;;;;;;38.30;26.93;;;1.30;99.90;;;;;;5370058;26;20251;-71
2024/04/23 05:09:55;;;;;;;37.50;26.17;;;1.30;99.90;;;;;;5371636;26;20787;-71
2024/04/23 05:12:22;;;;;;;33.57;24.23;;;1.30;99.90;;;;;;5371566;26;20217;-71
2024/04/23 05:14:47;;;;;;;40.83;26.27;;;1.20;99.90;;;;;;5372146;26;20622;-71
2024/04/23 05:17:13;;;;;;;37.60;25.93;;;1.30;99.90;;;;;;5371984;26;20260;-71
2024/04/23 05:19:39;;;;;;;37.43;26.80;;;1.30;99.90;;;;;;5371793;26;20314;-70
2024/04/23 05:22:04;;;;;;;38.50;25.80;;;1.40;99.90;;;;;;5371317;26;20260;-70
2024/04/23 05:24:30;;;;;;;39.83;27.53;;;1.50;99.90;;;;;;5371435;26;20348;-70
2024/04/23 05:26:55;;;;;;;34.57;26.27;;;1.50;99.90;;;;;;5371525;26;20264;-70
2024/04/23 05:29:21;;;;;;;34.47;24.83;;;1.60;99.90;;;;;;5371202;26;20210;-70
2024/04/23 05:34:31;;;;;;;34.77;25.73;;;1.80;99.90;;;;;;5371236;26;20269;-70
2024/04/23 05:36:56;;;;;;;37.27;27.50;;;1.90;99.90;;;;;;5371506;26;20728;-70
2024/04/23 05:39:22;;;;;;;39.37;27.97;;;2.00;99.90;;;;;;5371325;26;20261;-70
2024/04/23 05:41:47;;;;;;;39.60;28.20;;;2.10;99.90;;;;;;5371273;26;20221;-71
2024/04/23 05:44:13;;;;;;;43.20;28.97;;;2.20;99.90;;;;;;5370919;26;20225;-70
2024/04/23 05:46:39;;;;;;;38.77;28.57;;;2.30;99.90;;;;;;5371023;26;20226;-70
2024/04/23 05:49:42;;;;;;;48.23;31.10;;;2.40;99.90;;;;;;5370673;26;20263;-70
2024/04/23 05:52:45;;;;;;;46.60;31.40;;;2.50;99.90;;;;;;5371260;26;20264;-71
2024/04/23 05:55:38;;;;;;;48.97;32.97;;;2.60;99.90;;;;;;5371632;26;20275;-71
2024/04/23 05:58:04;;;;;;;49.03;31.40;;;2.70;99.90;;;;;;5371201;26;20217;-71
2024/04/23 06:00:30;;;;;;;51.63;33.63;;;2.90;99.90;;;;;;5341552;26;20246;-71
2024/04/23 06:02:55;;;;;;;52.40;33.53;;;3.10;99.90;;;;;;5336114;26;20211;-70
2024/04/23 06:05:22;;;;;;;54.30;34.90;;;3.20;99.90;;;;;;5336106;26;20233;-71
2024/04/23 06:07:48;;;;;;;56.93;35.30;;;3.40;99.90;;;;;;5335871;26;20215;-71
2024/04/23 06:10:13;;;;;;;56.60;36.57;;;3.60;99.90;;;;;;5346054;26;20367;-71
2024/04/23 06:12:39;;;;;;;67.00;41.17;;;3.90;99.90;;;;;;5370133;26;20218;-71
2024/04/23 06:15:05;;;;;;;72.00;43.37;;;4.40;99.90;;;;;;5370539;26;20217;-71
2024/04/23 06:17:34;;;;;;;70.73;44.40;;;5.00;99.90;;;;;;5371012;26;20541;-71
2024/04/23 06:20:01;;;;;;;73.90;46.00;;;5.60;99.90;;;;;;5369804;26;20243;-71
2024/04/23 06:22:28;;;;;;;67.67;44.00;;;6.10;99.90;;;;;;5370157;26;20230;-71
2024/04/23 06:24:55;;;;;;;69.37;43.90;;;6.60;99.90;;;;;;5370814;26;20214;-71
2024/04/23 06:27:22;;;;;;;65.67;41.27;;;7.00;99.90;;;;;;5369581;26;20264;-70
2024/04/23 06:29:48;;;;;;;49.10;35.83;;;7.50;99.90;;;;;;5370239;26;20316;-70
2024/04/23 06:32:14;;;;;;;45.10;33.37;;;7.80;99.90;;;;;;5368413;26;20241;-69
2024/04/23 06:34:43;;;;;;;43.30;29.67;;;8.10;99.90;;;;;;5370806;26;20343;-70
2024/04/23 06:37:10;;;;;;;32.43;26.03;;;8.40;99.90;;;;;;5370368;26;20276;-70
2024/04/23 06:39:35;;;;;;;29.23;22.43;;;8.70;99.90;;;;;;5370733;26;20623;-70
2024/04/23 06:42:01;;;;;;;23.60;20.03;;;9.00;99.90;;;;;;5370616;26;20232;-69
2024/04/23 06:44:27;;;;;;;20.00;17.53;;;9.30;99.90;;;;;;5370853;26;20720;-70
2024/04/23 06:46:52;;;;;;;17.27;15.27;;;9.60;99.90;;;;;;5371330;26;20260;-70
2024/04/23 06:49:19;;;;;;;19.90;16.00;;;9.60;99.90;;;;;;5370652;26;20279;-70
2024/04/23 06:51:45;;;;;;;17.23;15.23;;;9.80;99.90;;;;;;5370000;26;20404;-70
2024/04/23 06:54:11;;;;;;;17.70;14.97;;;10.10;99.90;;;;;;5369982;26;20712;-70
2024/04/23 06:56:36;;;;;;;20.67;15.03;;;10.50;1.00;;;;;;5370597;26;20245;-71
2024/04/23 06:59:02;;;;;;;17.80;14.80;;;10.90;99.90;;;;;;5370402;26;20244;-70
2024/04/23 07:01:29;;;;;;;19.90;14.33;;;11.20;1.00;;;;;;5369747;26;20217;-70
2024/04/23 07:03:55;;;;;;;16.43;14.43;;;11.50;1.00;;;;;;5370364;26;20226;-70
2024/04/23 07:06:20;;;;;;;14.83;13.17;;;11.90;1.00;;;;;;5368285;26;20230;-70
2024/04/23 07:08:47;;;;;;;13.63;11.97;;;12.30;1.00;;;;;;5370255;26;20218;-71
2024/04/23 07:11:13;;;;;;;12.40;10.87;;;12.60;99.90;;;;;;5369091;26;20229;-70
2024/04/23 07:13:38;;;;;;;12.20;9.17;;;12.80;75.30;;;;;;5369846;26;20229;-71
2024/04/23 07:16:05;;;;;;;11.27;9.40;;;13.20;50.40;;;;;;5370329;26;20260;-70
2024/04/23 07:18:30;;;;;;;10.87;8.60;;;13.40;99.90;;;;;;5371198;26;20209;-70
2024/04/23 07:20:56;;;;;;;12.67;9.23;;;13.60;99.90;;;;;;5371529;26;20310;-70
2024/04/23 07:23:22;;;;;;;10.57;9.57;;;13.80;99.90;;;;;;5371781;26;20256;-71
2024/04/23 07:25:50;;;;;;;10.90;9.73;;;13.80;99.90;;;;;;5371847;26;20294;-71
2024/04/23 07:28:17;;;;;;;10.33;9.23;;;14.00;99.90;;;;;;5371769;26;20217;-70
2024/04/23 07:30:44;;;;;;;9.30;8.27;;;14.20;94.20;;;;;;5499285;21;20259;-87
2024/04/23 07:33:10;;;;;;;10.67;8.80;;;14.30;90.90;;;;;;5444104;26;20682;-88
2024/04/23 07:35:40;;;;;;;9.50;8.00;;;14.40;92.40;;;;;;5410794;26;20272;-86
2024/04/23 07:38:10;;;;;;;8.93;8.03;;;14.60;84.70;;;;;;5396123;26;20271;-87
2024/04/23 07:40:44;;;;;;;8.60;7.77;;;14.80;91.90;;;;;;5380987;26;20236;-87
2024/04/23 07:43:11;;;;;;;8.63;7.70;;;15.20;88.50;;;;;;5409931;26;20228;-90
2024/04/23 07:45:37;;;;;;;8.30;7.50;;;15.50;81.00;;;;;;5380506;26;20224;-90
2024/04/23 07:48:07;;;;;;;9.67;7.73;;;15.50;74.00;;;;;;5322504;26;20291;-87
2024/04/23 07:50:33;;;;;;;8.37;7.57;;;15.50;77.60;;;;;;5350305;26;20223;-88
2024/04/23 07:53:05;;;;;;;8.73;7.17;;;15.60;70.50;;;;;;5377899;26;20255;-88
2024/04/23 07:55:32;;;;;;;7.63;6.87;;;15.80;82.10;;;;;;5409692;26;20313;-89
2024/04/23 07:57:58;;;;;;;8.20;7.43;;;16.00;81.20;;;;;;5392320;26;20553;-88
2024/04/23 08:00:27;;;;;;;9.43;7.00;;;16.10;73.50;;;;;;5408778;26;20247;-88
2024/04/23 08:02:54;;;;;;;9.13;7.33;;;16.10;67.30;;;;;;5378689;26;20247;-89
2024/04/23 08:05:24;;;;;;;7.37;6.67;;;16.30;77.30;;;;;;5379498;26;20263;-88
2024/04/23 08:07:50;;;;;;;9.27;7.30;;;16.40;64.80;;;;;;5378313;26;20293;-90
2024/04/23 08:10:19;;;;;;;9.23;7.60;;;16.60;68.40;;;;;;5390671;26;20251;-89
2024/04/23 08:12:50;;;;;;;8.37;7.57;;;16.80;69.40;;;;;;5424304;26;20235;-88
2024/04/23 08:15:16;;;;;;;11.27;7.50;;;16.90;62.30;;;;;;5388669;26;20536;-88
2024/04/23 08:17:48;;;;;;;7.67;6.90;;;16.80;65.70;;;;;;5397270;26;20228;-89
2024/04/23 08:20:14;;;;;;;8.00;7.20;;;16.90;66.40;;;;;;5380013;26;20697;-88
2024/04/23 08:22:41;;;;;;;9.00;6.53;;;16.80;58.30;;;;;;5348665;26;20294;-88
2024/04/23 08:25:13;;;;;;;9.33;6.83;;;16.90;63.30;;;;;;5349597;26;20228;-88
2024/04/23 08:27:43;;;;;;;9.00;8.07;;;17.10;63.30;;;;;;5379737;26;20633;-88
2024/04/23 08:30:10;;;;;;;7.65;6.53;;;17.20;62.20;;;;;;5377732;26;20221;-88
2024/04/23 08:32:35;;;;;;;7.53;6.77;;;17.30;57.50;;;;;;5377666;26;20324;-88
2024/04/23 08:35:01;;;;;;;8.27;6.90;;;17.20;57.10;;;;;;5406543;26;20597;-88
2024/04/23 08:37:26;;;;;;;7.05;6.35;;;17.30;55.60;;;;;;5414497;26;20215;-88
2024/04/23 08:39:53;;;;;;;7.47;6.77;;;17.30;54.30;;;;;;5384517;26;20298;-88
2024/04/23 08:42:25;;;;;;;7.03;6.40;;;17.30;54.10;;;;;;5378577;26;20628;-88
2024/04/23 08:44:54;;;;;;;7.77;6.93;;;17.20;56.50;;;;;;5386849;26;20240;-87
2024/04/23 08:47:20;;;;;;;7.73;6.93;;;17.20;58.10;;;;;;5386805;26;20232;-88
2024/04/23 08:49:47;;;;;;;7.47;6.77;;;16.90;52.00;;;;;;5423827;26;20251;-89
2024/04/23 08:52:16;;;;;;;6.90;6.30;;;16.70;48.20;;;;;;5459776;26;20242;-87
2024/04/23 08:54:42;;;;;;;7.30;6.53;;;16.60;53.70;;;;;;5426384;26;20232;-88
2024/04/23 08:57:13;;;;;;;7.03;6.37;;;16.60;53.70;;;;;;5388183;26;20340;-88
2024/04/23 08:59:39;;;;;;;6.43;5.93;;;16.80;54.40;;;;;;5394158;26;20243;-88
2024/04/23 09:02:05;;;;;;;6.83;6.20;;;17.00;53.30;;;;;;5404997;26;20236;-88
2024/04/23 09:04:32;;;;;;;4.43;4.03;;;17.20;53.70;;;;;;5404879;26;20267;-88
2024/04/23 09:06:59;;;;;;;4.50;4.00;;;16.90;36.00;;;;;;5386645;26;20709;-88
2024/04/23 09:09:26;;;;;;;2.85;2.65;;;16.80;43.40;;;;;;5386518;26;20543;-88
2024/04/23 09:11:52;;;;;;;3.40;3.10;;;16.80;39.30;;;;;;5387298;26;20224;-88
2024/04/23 09:14:18;;;;;;;3.70;3.40;;;16.90;37.50;;;;;;5452157;26;20235;-88
2024/04/23 09:16:44;;;;;;;3.67;3.30;;;17.10;41.00;;;;;;5422522;26;20223;-88
2024/04/23 09:19:10;;;;;;;3.87;3.37;;;17.10;36.90;;;;;;5421914;26;20231;-88
2024/04/23 09:21:36;;;;;;;4.90;3.63;;;17.10;33.90;;;;;;5408093;26;20263;-88
2024/04/23 09:24:02;;;;;;;4.33;3.63;;;16.80;32.00;;;;;;5395550;26;20239;-88
2024/04/23 09:26:31;;;;;;;3.87;3.53;;;16.60;30.10;;;;;;5421386;26;20231;-88
2024/04/23 09:28:59;;;;;;;6.03;3.13;;;16.50;33.80;;;;;;5422237;26;20454;-87
2024/04/23 09:31:25;;;;;;;3.53;3.23;;;16.70;35.60;;;;;;5422539;26;20286;-88
2024/04/23 09:33:55;;;;;;;6.60;3.70;;;16.90;31.90;;;;;;5422222;26;20231;-88
2024/04/23 09:36:25;;;;;;;5.67;3.90;;;17.00;34.30;;;;;;5392367;26;20225;-87
2024/04/23 09:38:56;;;;;;;5.23;4.13;;;17.20;31.70;;;;;;5450659;26;20224;-87
2024/04/23 09:41:30;;;;;;;3.80;3.50;;;17.10;32.70;;;;;;5416023;26;20224;-89
2024/04/23 09:43:57;;;;;;;4.57;4.17;;;16.90;30.00;;;;;;5419091;26;20221;-88
2024/04/23 09:46:25;;;;;;;4.97;4.57;;;17.00;30.60;;;;;;5388151;26;20583;-88
2024/04/23 09:48:52;;;;;;;5.90;4.27;;;17.10;34.70;;;;;;5386347;26;20600;-88
2024/04/23 09:51:19;;;;;;;4.53;4.13;;;17.40;36.40;;;;;;5402072;26;20271;-88
2024/04/23 09:53:52;;;;;;;5.95;4.35;;;17.70;36.80;;;;;;5353956;26;20408;-87
2024/04/23 09:56:19;;;;;;;5.68;4.50;;;17.90;35.30;;;;;;5381882;26;20224;-88
2024/04/23 09:58:46;;;;;;;5.28;4.50;;;18.10;35.40;;;;;;5353672;26;20312;-88
2024/04/23 10:01:15;;;;;;;5.75;4.93;;;18.20;35.40;;;;;;5383340;26;20225;-88
2024/04/23 10:03:45;;;;;;;5.97;4.65;;;18.40;34.60;;;;;;5355170;26;20579;-88
2024/04/23 10:06:15;;;;;;;5.32;4.63;;;18.50;32.20;;;;;;5386509;26;20296;-88
2024/04/23 10:09:17;;;;;;;6.60;5.20;;;18.20;31.50;;;;;;5383315;26;20634;-88
2024/04/23 10:11:52;;;;;;;5.40;4.90;;;18.00;29.40;;;;;;5351537;26;20607;-88
2024/04/23 10:14:24;;;;;;;5.30;4.80;;;17.50;31.10;;;;;;5405445;26;20235;-88
2024/04/23 10:17:13;;;;;;;5.53;5.03;;;16.70;29.40;;;;;;5384019;26;20293;-87
2024/04/23 10:19:42;;;;;;;5.63;5.03;;;15.80;28.80;;;;;;5390217;26;20849;-87
2024/04/23 10:22:09;;;;;;;5.60;5.10;;;14.90;30.00;;;;;;5418344;26;20231;-87
2024/04/23 10:24:35;;;;;;;5.90;5.30;;;14.20;29.40;;;;;;5389693;26;20376;-89
2024/04/23 10:27:01;;;;;;;5.30;4.80;;;13.80;31.80;;;;;;5422333;26;20231;-89
2024/04/23 10:29:28;;;;;;;5.73;4.93;;;14.10;36.00;;;;;;5423136;26;20231;-88
2024/04/23 10:31:54;;;;;;;5.93;4.60;;;14.50;35.40;;;;;;5424765;26;20277;-87
2024/04/23 10:34:22;;;;;;;5.23;4.40;;;15.10;36.00;;;;;;5422618;26;20236;-88
2024/04/23 10:36:51;;;;;;;6.07;3.90;;;15.40;33.90;;;;;;5424513;26;20262;-87
2024/04/23 10:39:21;;;;;;;4.60;3.90;;;15.80;29.80;;;;;;5414220;26;20598;-88
2024/04/23 10:41:47;;;;;;;4.30;3.90;;;16.20;33.40;;;;;;5415161;26;20286;-88
2024/04/23 10:44:16;;;;;;;4.40;3.70;;;16.50;31.40;;;;;;5415523;26;20323;-88
2024/04/23 10:46:43;;;;;;;3.60;3.30;;;16.80;32.90;;;;;;5356907;26;20303;-88
2024/04/23 10:49:15;;;;;;;5.70;3.80;;;16.90;30.10;;;;;;5444819;26;20274;-88
2024/04/23 10:51:46;;;;;;;5.73;4.60;;;16.60;29.70;;;;;;5416403;26;20227;-88
2024/04/23 10:54:19;;;;;;;4.30;4.00;;;15.90;28.00;;;;;;5414696;26;20295;-88
2024/04/23 10:56:45;;;;;;;4.60;4.20;;;15.30;30.30;;;;;;5415698;26;20295;-88
2024/04/23 10:59:13;;;;;;;4.50;4.10;;;14.90;28.50;;;;;;5414402;26;20303;-88
2024/04/23 11:01:49;;;;;;;5.87;4.50;;;14.50;30.30;;;;;;5448775;26;20306;-88
2024/04/23 11:04:17;;;;;;;4.53;4.13;;;14.20;29.10;;;;;;5451478;26;20230;-89
2024/04/23 11:06:44;;;;;;;5.27;4.77;;;14.00;30.60;;;;;;5420363;26;20681;-87
2024/04/23 11:09:19;;;;;;;5.00;4.50;;;13.90;30.50;;;;;;5390489;26;20223;-88
2024/04/23 11:11:55;;;;;;;4.90;4.47;;;14.10;31.80;;;;;;5396477;26;20230;-91
2024/04/23 11:14:37;;;;;;;4.20;3.80;;;14.40;35.20;;;;;;5452639;26;20258;-87
2024/04/23 11:17:04;;;;;;;5.20;3.90;;;15.10;32.30;;;;;;5450927;26;20220;-88
2024/04/23 11:19:38;;;;;;;5.63;4.20;;;15.40;31.10;;;;;;5418731;26;20278;-88
2024/04/23 11:22:10;;;;;;;4.43;4.07;;;15.80;33.80;;;;;;5419330;26;20266;-89
2024/04/23 11:24:55;;;;;;;5.40;4.20;;;16.40;32.50;;;;;;5389110;26;20235;-87
2024/04/23 11:27:21;;;;;;;4.47;4.07;;;16.20;27.30;;;;;;5417841;26;20311;-87
2024/04/23 11:29:48;;;;;;;4.23;3.93;;;16.20;31.90;;;;;;5401217;26;20237;-88
2024/04/23 11:32:15;;;;;;;4.77;4.23;;;16.40;29.00;;;;;;5380613;26;20713;-88
2024/04/23 11:34:43;;;;;;;4.30;4.00;;;16.30;26.40;;;;;;5378737;26;20366;-88
2024/04/23 11:37:20;;;;;;;4.03;3.73;;;16.30;27.50;;;;;;5378764;26;20593;-88
2024/04/23 11:39:46;;;;;;;4.30;3.90;;;16.50;28.70;;;;;;5378839;26;20277;-88
2024/04/23 11:42:12;;;;;;;3.90;3.60;;;16.70;30.40;;;;;;5390045;26;20325;-88
2024/04/23 11:44:39;;;;;;;4.37;3.97;;;16.50;24.60;;;;;;5383117;26;20253;-89
2024/04/23 11:47:11;;;;;;;4.00;3.70;;;16.40;26.80;;;;;;5387104;26;20225;-87
2024/04/23 11:49:39;;;;;;;4.67;3.97;;;16.50;24.00;;;;;;5395885;26;20333;-93
2024/04/23 11:52:06;;;;;;;4.77;3.90;;;16.50;22.40;;;;;;5387743;26;20289;-88
2024/04/23 11:54:37;;;;;;;4.77;4.33;;;16.10;25.40;;;;;;5415516;26;20338;-88
2024/04/23 11:57:03;;;;;;;4.43;4.13;;;16.30;23.10;;;;;;5393188;26;20279;-88
2024/04/23 11:59:29;;;;;;;5.33;4.60;;;16.40;25.40;;;;;;5355721;26;20267;-88
2024/04/23 12:01:55;;;;;;;4.53;4.13;;;16.40;22.30;;;;;;5382725;26;20296;-88
2024/04/23 12:04:22;;;;;;;5.70;3.80;;;16.40;27.30;;;;;;5353821;26;20280;-88
2024/04/23 12:06:51;;;;;;;4.50;4.10;;;16.50;23.80;;;;;;5384659;26;20217;-87
2024/04/23 12:09:17;;;;;;;4.03;3.73;;;16.40;23.70;;;;;;5384519;26;20250;-88
2024/04/23 12:11:45;;;;;;;4.47;4.10;;;16.00;21.00;;;;;;5396282;26;20883;-88
2024/04/23 12:14:11;;;;;;;5.23;3.97;;;15.80;22.20;;;;;;5452329;26;20291;-88
2024/04/23 12:16:46;;;;;;;4.00;3.70;;;15.80;24.60;;;;;;5449345;26;20233;-88
2024/04/23 12:19:12;;;;;;;3.63;3.43;;;16.00;22.90;;;;;;5451293;26;20227;-88
2024/04/23 12:21:39;;;;;;;4.40;3.97;;;16.00;24.30;;;;;;5414683;26;20236;-86
2024/04/23 12:24:13;;;;;;;4.13;3.73;;;16.10;23.70;;;;;;5450705;26;20236;-87
2024/04/23 12:26:41;;;;;;;4.30;3.97;;;16.10;23.30;;;;;;5383197;26;20224;-91
2024/04/23 12:29:07;;;;;;;4.07;3.77;;;16.40;25.80;;;;;;5353590;26;20259;-88
2024/04/23 12:31:33;;;;;;;4.40;4.00;;;16.40;21.90;;;;;;5382552;26;20220;-89
2024/04/23 12:33:59;;;;;;;4.43;4.03;;;16.30;23.20;;;;;;5354362;26;20271;-89
2024/04/23 12:36:28;;;;;;;4.00;3.70;;;16.50;22.30;;;;;;5382708;26;20225;-88
2024/04/23 12:38:54;;;;;;;4.37;4.00;;;16.70;22.30;;;;;;5401434;26;20241;-87
2024/04/23 12:41:25;;;;;;;4.13;3.83;;;16.90;20.10;;;;;;5381596;26;20220;-88
2024/04/23 12:43:51;;;;;;;4.40;4.00;;;16.90;22.00;;;;;;5382465;26;20252;-88
2024/04/23 12:46:22;;;;;;;4.80;4.00;;;16.90;22.20;;;;;;5382273;26;20611;-88
2024/04/23 12:48:48;;;;;;;4.03;3.63;;;16.90;19.90;;;;;;5380953;26;20216;-89